createdAt,value
2022-10-01T00:01:13.978Z,7.00
2022-10-01T00:03:42.212Z,8.18
2022-10-01T00:06:14.333Z,7.20
2022-10-01T00:08:42.630Z,7.10
2022-10-01T00:11:10.571Z,11.52
2022-10-01T00:13:38.271Z,6.28
2022-10-01T00:16:08.283Z,9.35
2022-10-01T00:18:37.020Z,7.05
2022-10-01T00:21:18.448Z,8.10
2022-10-01T00:23:46.183Z,9.45
2022-10-01T00:26:17.357Z,8.18
2022-10-01T00:28:46.538Z,7.93
2022-10-01T00:31:15.909Z,10.60
2022-10-01T00:36:11.050Z,9.55
2022-10-01T00:38:40.297Z,10.45
2022-10-01T00:41:08.362Z,9.43
2022-10-01T00:43:40.111Z,8.38
2022-10-01T00:46:15.627Z,8.73
2022-10-01T00:49:10.946Z,10.90
2022-10-01T00:51:42.669Z,7.88
2022-10-01T00:54:14.767Z,8.82
2022-10-01T00:56:43.436Z,9.73
2022-10-01T00:59:12.158Z,9.60
2022-10-01T01:01:39.348Z,8.02
2022-10-01T01:04:16.487Z,9.80
2022-10-01T01:06:53.808Z,11.15
2022-10-01T01:09:22.549Z,10.65
2022-10-01T01:12:05.137Z,10.98
2022-10-01T01:15:03.042Z,8.30
2022-10-01T01:17:58.362Z,10.80
2022-10-01T01:20:32.592Z,12.20
2022-10-01T01:23:19.151Z,8.95
2022-10-01T01:26:01.030Z,9.25
2022-10-01T01:28:37.885Z,9.30
2022-10-01T01:31:13.915Z,11.93
2022-10-01T01:33:43.700Z,10.57
2022-10-01T01:36:16.373Z,9.55
2022-10-01T01:38:52.002Z,8.00
2022-10-01T01:41:21.369Z,10.65
2022-10-01T01:43:51.983Z,10.93
2022-10-01T01:46:20.961Z,10.30
2022-10-01T01:48:51.535Z,7.30
2022-10-01T01:51:31.448Z,11.60
2022-10-01T01:53:59.276Z,10.93
2022-10-01T01:56:26.366Z,12.40
2022-10-01T01:59:00.238Z,9.48
2022-10-01T02:01:39.507Z,11.90
2022-10-01T02:04:23.378Z,12.70
2022-10-01T02:07:16.278Z,11.95
2022-10-01T02:10:16.865Z,9.27
2022-10-01T02:13:08.421Z,13.00
2022-10-01T02:15:38.297Z,11.82
2022-10-01T02:18:30.319Z,12.63
2022-10-01T02:21:29.134Z,12.40
2022-10-01T02:24:17.610Z,10.90
2022-10-01T02:26:46.968Z,16.30
2022-10-01T02:29:17.031Z,12.15
2022-10-01T02:31:47.429Z,13.80
2022-10-01T02:34:20.223Z,13.65
2022-10-01T02:36:49.074Z,13.45
2022-10-01T02:39:17.349Z,13.83
2022-10-01T02:41:48.100Z,11.80
2022-10-01T02:44:21.329Z,10.75
2022-10-01T02:47:18.279Z,11.73
2022-10-01T02:49:45.182Z,10.85
2022-10-01T02:52:32.482Z,9.65
2022-10-01T02:55:07.504Z,9.48
2022-10-01T02:57:34.713Z,9.82
2022-10-01T03:00:06.988Z,10.85
2022-10-01T03:02:33.947Z,11.15
2022-10-01T03:05:02.057Z,11.10
2022-10-01T03:07:34.639Z,9.38
2022-10-01T03:10:05.644Z,10.07
2022-10-01T03:12:33.136Z,7.75
2022-10-01T03:14:59.999Z,9.13
2022-10-01T03:17:27.303Z,8.52
2022-10-01T03:19:54.572Z,8.85
2022-10-01T03:22:22.905Z,9.27
2022-10-01T03:24:50.998Z,7.88
2022-10-01T03:27:18.405Z,6.72
2022-10-01T03:29:45.296Z,9.90
2022-10-01T03:32:12.860Z,6.55
2022-10-01T03:34:39.670Z,5.30
2022-10-01T03:37:07.359Z,6.20
2022-10-01T03:39:34.518Z,6.35
2022-10-01T03:42:01.760Z,5.35
2022-10-01T03:44:28.587Z,6.25
2022-10-01T03:46:55.519Z,6.15
2022-10-01T03:49:22.456Z,5.35
2022-10-01T03:51:49.400Z,6.07
2022-10-01T03:54:16.300Z,5.30
2022-10-01T03:56:43.138Z,5.43
2022-10-01T03:59:11.039Z,5.90
2022-10-01T04:01:39.318Z,5.05
2022-10-01T04:04:06.865Z,5.22
2022-10-01T04:06:33.680Z,5.35
2022-10-01T04:09:00.500Z,6.10
2022-10-01T04:11:27.472Z,6.32
2022-10-01T04:13:54.329Z,5.13
2022-10-01T04:16:21.274Z,4.80
2022-10-01T04:18:48.165Z,5.88
2022-10-01T04:21:15.557Z,5.35
2022-10-01T04:23:42.497Z,4.80
2022-10-01T04:26:09.476Z,5.18
2022-10-01T04:28:36.362Z,5.55
2022-10-01T04:31:21.822Z,4.78
2022-10-01T04:33:48.627Z,5.38
2022-10-01T04:36:15.571Z,6.82
2022-10-01T04:38:42.522Z,6.40
2022-10-01T04:41:09.458Z,5.63
2022-10-01T04:43:37.163Z,6.13
2022-10-01T04:46:03.977Z,5.90
2022-10-01T04:48:30.752Z,4.97
2022-10-01T04:51:00.631Z,5.32
2022-10-01T04:53:27.498Z,4.57
2022-10-01T04:55:54.600Z,6.00
2022-10-01T04:58:21.394Z,4.05
2022-10-01T05:00:49.875Z,3.72
2022-10-01T05:03:17.692Z,4.95
2022-10-01T05:05:44.637Z,4.22
2022-10-01T05:08:11.521Z,4.90
2022-10-01T05:10:38.520Z,4.07
2022-10-01T05:13:05.358Z,4.82
2022-10-01T05:15:32.988Z,4.88
2022-10-01T05:17:59.748Z,3.97
2022-10-01T05:20:30.234Z,4.88
2022-10-01T05:22:57.138Z,4.05
2022-10-01T05:25:24.091Z,4.93
2022-10-01T05:27:51.033Z,4.70
2022-10-01T05:30:24.271Z,4.25
2022-10-01T05:32:59.011Z,4.15
2022-10-01T05:35:26.312Z,4.35
2022-10-01T05:37:54.524Z,4.57
2022-10-01T05:40:21.534Z,5.05
2022-10-01T05:42:48.619Z,5.30
2022-10-01T05:45:15.605Z,5.47
2022-10-01T05:47:44.930Z,4.93
2022-10-01T05:50:11.748Z,5.30
2022-10-01T05:52:38.565Z,5.50
2022-10-01T05:55:05.643Z,6.28
2022-10-01T05:57:33.113Z,6.10
2022-10-01T05:59:59.961Z,5.95
2022-10-01T06:02:26.933Z,4.10
2022-10-01T06:04:54.002Z,6.05
2022-10-01T06:07:20.916Z,6.22
2022-10-01T06:09:47.747Z,6.70
2022-10-01T06:12:19.051Z,5.50
2022-10-01T06:14:46.746Z,6.35
2022-10-01T06:17:13.583Z,6.55
2022-10-01T06:19:40.398Z,6.93
2022-10-01T06:22:07.215Z,7.47
2022-10-01T06:24:34.088Z,6.88
2022-10-01T06:27:00.886Z,4.82
2022-10-01T06:29:27.763Z,8.25
2022-10-01T06:31:54.749Z,7.60
2022-10-01T06:34:21.785Z,7.25
2022-10-01T06:36:48.596Z,7.97
2022-10-01T06:39:15.729Z,8.50
2022-10-01T06:41:43.559Z,8.32
2022-10-01T06:44:10.786Z,8.60
2022-10-01T06:46:37.594Z,8.52
2022-10-01T06:49:04.486Z,7.85
2022-10-01T06:51:49.765Z,8.25
2022-10-01T06:54:18.355Z,8.80
2022-10-01T06:56:45.301Z,7.83
2022-10-01T06:59:12.130Z,6.63
2022-10-01T07:01:39.286Z,8.18
2022-10-01T07:04:06.350Z,8.45
2022-10-01T07:06:33.140Z,9.18
2022-10-01T07:09:00.201Z,8.40
2022-10-01T07:11:27.320Z,8.55
2022-10-01T07:13:54.793Z,9.63
2022-10-01T07:16:21.868Z,9.13
2022-10-01T07:18:48.919Z,10.43
2022-10-01T07:21:15.866Z,7.68
2022-10-01T07:23:43.308Z,10.45
2022-10-01T07:26:10.490Z,9.93
2022-10-01T07:28:37.359Z,9.77
2022-10-01T07:31:06.864Z,10.00
2022-10-01T07:36:05.395Z,11.63
2022-10-01T07:38:35.492Z,10.50
2022-10-01T07:41:03.481Z,12.35
2022-10-01T07:43:31.727Z,13.23
2022-10-01T07:46:00.197Z,11.52
2022-10-01T07:48:28.018Z,12.73
2022-10-01T07:50:54.915Z,12.40
2022-10-01T07:53:25.292Z,11.73
2022-10-01T07:55:52.110Z,9.80
2022-10-01T07:58:18.989Z,12.40
2022-10-01T08:00:45.995Z,13.48
2022-10-01T08:03:13.054Z,10.85
2022-10-01T08:05:43.298Z,9.73
2022-10-01T08:08:10.396Z,9.50
2022-10-01T08:10:38.528Z,9.45
2022-10-01T08:13:14.931Z,11.02
2022-10-01T08:15:47.436Z,9.48
2022-10-01T08:18:14.674Z,10.13
2022-10-01T08:20:41.645Z,14.45
2022-10-01T08:23:11.173Z,10.75
2022-10-01T08:28:07.137Z,9.18
2022-10-01T08:30:36.588Z,9.57
2022-10-01T08:35:31.073Z,8.02
2022-10-01T08:38:05.765Z,8.85
2022-10-01T08:40:38.315Z,15.73
2022-10-01T08:43:15.140Z,10.13
2022-10-01T08:45:46.676Z,7.15
2022-10-01T08:48:19.336Z,5.80
2022-10-01T08:51:18.579Z,9.45
2022-10-01T08:53:59.918Z,11.32
2022-10-01T08:56:36.601Z,7.57
2022-10-01T08:59:13.923Z,9.25
2022-10-01T09:01:40.801Z,12.25
2022-10-01T09:04:07.823Z,8.40
2022-10-01T09:06:34.711Z,5.82
2022-10-01T09:09:35.636Z,12.43
2022-10-01T09:12:39.314Z,7.22
2022-10-01T09:15:16.895Z,7.88
2022-10-01T09:18:14.105Z,6.88
2022-10-01T09:21:01.329Z,9.93
2022-10-01T09:23:34.268Z,7.53
2022-10-01T09:26:01.426Z,10.18
2022-10-01T09:28:30.973Z,6.60
2022-10-01T09:31:11.132Z,11.82
2022-10-01T09:36:37.800Z,6.13
2022-10-01T09:39:13.661Z,6.50
2022-10-01T09:41:40.648Z,4.93
2022-10-01T09:44:18.685Z,9.75
2022-10-01T09:46:47.280Z,6.00
2022-10-01T09:49:29.262Z,5.88
2022-10-01T09:52:02.675Z,7.15
2022-10-01T09:54:32.503Z,6.82
2022-10-01T09:57:44.025Z,4.40
2022-10-01T10:00:26.434Z,5.80
2022-10-01T10:02:54.948Z,6.88
2022-10-01T10:05:27.796Z,3.90
2022-10-01T10:08:12.276Z,5.35
2022-10-01T10:10:40.595Z,4.90
2022-10-01T10:13:10.900Z,4.75
2022-10-01T10:15:57.694Z,7.90
2022-10-01T10:18:35.343Z,5.07
2022-10-01T10:21:07.564Z,3.63
2022-10-01T10:23:34.578Z,6.93
2022-10-01T10:26:04.749Z,6.18
2022-10-01T10:28:44.589Z,5.22
2022-10-01T10:33:51.135Z,5.25
2022-10-01T10:36:19.739Z,3.90
2022-10-01T10:38:53.561Z,4.10
2022-10-01T10:41:26.258Z,7.07
2022-10-01T10:44:00.596Z,5.45
2022-10-01T10:46:34.489Z,5.93
2022-10-01T10:49:30.035Z,4.85
2022-10-01T10:52:01.671Z,7.07
2022-10-01T10:54:39.981Z,9.00
2022-10-01T10:57:30.076Z,8.30
2022-10-01T10:59:59.463Z,7.97
2022-10-01T11:02:32.062Z,8.80
2022-10-01T11:05:12.025Z,9.38
2022-10-01T11:07:45.240Z,6.75
2022-10-01T11:10:30.912Z,8.15
2022-10-01T11:13:32.742Z,5.63
2022-10-01T11:16:24.564Z,9.18
2022-10-01T11:19:08.835Z,12.77
2022-10-01T11:22:03.380Z,12.73
2022-10-01T11:24:55.574Z,9.52
2022-10-01T11:27:46.798Z,8.73
2022-10-01T11:30:41.463Z,7.43
2022-10-01T11:33:18.334Z,7.20
2022-10-01T11:36:03.134Z,7.38
2022-10-01T11:39:09.010Z,8.32
2022-10-01T11:41:43.283Z,7.78
2022-10-01T11:44:26.719Z,5.22
2022-10-01T11:47:02.261Z,6.95
2022-10-01T11:49:45.229Z,7.50
2022-10-01T11:52:23.155Z,7.38
2022-10-01T11:55:22.283Z,6.03
2022-10-01T11:58:14.517Z,4.40
2022-10-01T12:00:48.397Z,5.80
2022-10-01T12:03:21.459Z,4.35
2022-10-01T12:05:49.431Z,4.35
2022-10-01T12:08:26.182Z,6.43
2022-10-01T12:11:17.761Z,5.80
2022-10-01T12:13:56.700Z,5.80
2022-10-01T12:16:42.921Z,5.72
2022-10-01T12:19:19.086Z,5.43
2022-10-01T12:21:51.853Z,7.47
2022-10-01T12:24:36.406Z,11.07
2022-10-01T12:27:30.907Z,8.10
2022-10-01T12:30:09.439Z,4.13
2022-10-01T12:33:12.629Z,7.90
2022-10-01T12:35:51.892Z,6.68
2022-10-01T12:38:46.298Z,8.63
2022-10-01T12:41:25.228Z,8.23
2022-10-01T12:44:13.831Z,7.03
2022-10-01T12:46:52.657Z,7.70
2022-10-01T12:49:29.328Z,6.25
2022-10-01T12:52:12.068Z,10.55
2022-10-01T12:54:57.659Z,12.35
2022-10-01T12:57:49.091Z,9.50
2022-10-01T13:00:25.015Z,5.55
2022-10-01T13:03:13.772Z,6.55
2022-10-01T13:05:59.593Z,5.82
2022-10-01T13:08:40.313Z,5.75
2022-10-01T13:11:20.622Z,7.18
2022-10-01T13:13:52.652Z,6.78
2022-10-01T13:16:22.733Z,6.80
2022-10-01T13:19:08.783Z,6.82
2022-10-01T13:22:09.778Z,10.52
2022-10-01T13:25:01.043Z,7.22
2022-10-01T13:27:35.958Z,7.45
2022-10-01T13:30:26.704Z,7.00
2022-10-01T13:35:40.169Z,7.70
2022-10-01T13:38:30.382Z,6.57
2022-10-01T13:41:04.264Z,6.07
2022-10-01T13:43:33.405Z,11.55
2022-10-01T13:48:45.246Z,9.40
2022-10-01T13:51:14.178Z,6.50
2022-10-01T13:53:44.934Z,8.25
2022-10-01T13:56:14.577Z,10.82
2022-10-01T13:58:43.712Z,8.82
2022-10-01T14:01:21.340Z,6.18
2022-10-01T14:04:08.468Z,11.60
2022-10-01T14:06:35.735Z,11.02
2022-10-01T14:09:20.632Z,9.27
2022-10-01T14:12:24.013Z,8.93
2022-10-01T14:15:18.241Z,8.90
2022-10-01T14:17:47.896Z,7.72
2022-10-01T14:20:27.310Z,11.30
2022-10-01T14:23:12.978Z,10.32
2022-10-01T14:26:03.485Z,7.03
2022-10-01T14:28:38.694Z,10.63
2022-10-01T14:31:36.649Z,8.57
2022-10-01T14:34:22.753Z,5.72
2022-10-01T14:36:52.192Z,7.32
2022-10-01T14:39:28.573Z,6.35
2022-10-01T14:41:57.143Z,6.47
2022-10-01T14:44:36.383Z,7.95
2022-10-01T14:47:14.297Z,7.43
2022-10-01T14:49:41.238Z,9.35
2022-10-01T14:52:37.491Z,9.43
2022-10-01T14:55:08.080Z,10.45
2022-10-01T14:57:38.511Z,8.85
2022-10-01T15:00:27.795Z,9.07
2022-10-01T15:03:15.784Z,7.40
2022-10-01T15:05:43.859Z,11.38
2022-10-01T15:08:13.486Z,10.65
2022-10-01T15:10:51.607Z,10.98
2022-10-01T15:13:27.368Z,7.68
2022-10-01T15:15:55.749Z,8.50
2022-10-01T15:18:26.257Z,12.17
2022-10-01T15:20:57.012Z,11.70
2022-10-01T15:23:25.603Z,9.35
2022-10-01T15:25:54.264Z,6.60
2022-10-01T15:28:31.939Z,10.32
2022-10-01T15:31:01.132Z,5.13
2022-10-01T15:35:58.445Z,6.85
2022-10-01T15:38:26.054Z,12.32
2022-10-01T15:41:14.015Z,8.90
2022-10-01T15:43:45.918Z,7.38
2022-10-01T15:46:29.219Z,7.22
2022-10-01T15:49:15.181Z,7.18
2022-10-01T15:52:28.350Z,8.73
2022-10-01T15:54:59.456Z,7.05
2022-10-01T15:57:30.177Z,15.73
2022-10-01T16:00:00.312Z,13.57
2022-10-01T16:02:30.812Z,7.20
2022-10-01T16:05:07.377Z,12.23
2022-10-01T16:07:35.425Z,9.90
2022-10-01T16:10:15.881Z,10.82
2022-10-01T16:12:42.777Z,11.50
2022-10-01T16:15:52.715Z,7.50
2022-10-01T16:18:23.132Z,14.88
2022-10-01T16:20:56.766Z,9.30
2022-10-01T16:23:43.076Z,14.02
2022-10-01T16:26:28.546Z,14.48
2022-10-01T16:28:58.155Z,12.00
2022-10-01T16:31:25.958Z,15.75
2022-10-01T16:33:52.803Z,9.85
2022-10-01T16:36:21.848Z,9.48
2022-10-01T16:38:48.836Z,10.38
2022-10-01T16:41:22.221Z,10.18
2022-10-01T16:43:50.393Z,9.73
2022-10-01T16:46:17.316Z,13.73
2022-10-01T16:48:46.215Z,9.52
2022-10-01T16:51:13.070Z,11.80
2022-10-01T16:53:42.745Z,11.02
2022-10-01T16:56:10.847Z,13.27
2022-10-01T16:58:38.621Z,13.98
2022-10-01T17:01:10.000Z,11.32
2022-10-01T17:03:36.894Z,10.32
2022-10-01T17:06:03.979Z,12.63
2022-10-01T17:08:31.036Z,8.05
2022-10-01T17:11:00.639Z,12.15
2022-10-01T17:13:33.180Z,10.75
2022-10-01T17:16:01.063Z,11.07
2022-10-01T17:18:28.895Z,9.35
2022-10-01T17:20:56.459Z,11.60
2022-10-01T17:23:23.532Z,10.63
2022-10-01T17:25:50.507Z,14.00
2022-10-01T17:28:19.923Z,14.20
2022-10-01T17:30:48.256Z,12.05
2022-10-01T17:33:18.822Z,9.85
2022-10-01T17:35:51.671Z,10.68
2022-10-01T17:38:19.298Z,8.15
2022-10-01T17:40:46.719Z,10.13
2022-10-01T17:43:15.333Z,6.28
2022-10-01T17:45:43.406Z,16.58
2022-10-01T17:48:10.610Z,13.80
2022-10-01T17:50:43.395Z,15.48
2022-10-01T17:53:15.002Z,12.20
2022-10-01T17:55:42.922Z,9.10
2022-10-01T17:58:10.374Z,12.10
2022-10-01T18:00:37.494Z,12.20
2022-10-01T18:03:04.445Z,10.65
2022-10-01T18:05:31.562Z,13.50
2022-10-01T18:07:58.462Z,13.20
2022-10-01T18:10:26.005Z,14.02
2022-10-01T18:12:52.910Z,11.45
2022-10-01T18:15:22.537Z,9.38
2022-10-01T18:18:38.118Z,13.05
2022-10-01T18:20:39.475Z,7.97
2022-10-01T18:23:06.316Z,13.38
2022-10-01T18:25:33.178Z,10.25
2022-10-01T18:28:00.209Z,7.78
2022-10-01T18:30:27.168Z,9.88
2022-10-01T18:32:59.693Z,10.02
2022-10-01T18:35:34.709Z,10.27
2022-10-01T18:38:29.852Z,7.75
2022-10-01T18:41:03.231Z,7.22
2022-10-01T18:43:34.401Z,7.85
2022-10-01T18:46:45.233Z,11.32
2022-10-01T18:49:43.070Z,7.82
2022-10-01T18:52:29.480Z,7.75
2022-10-01T18:55:34.223Z,7.50
2022-10-01T18:58:26.106Z,5.93
2022-10-01T19:01:30.241Z,11.88
2022-10-01T19:04:16.197Z,11.77
2022-10-01T19:07:05.289Z,12.90
2022-10-01T19:10:04.506Z,10.98
2022-10-01T19:12:34.124Z,8.27
2022-10-01T19:15:17.034Z,9.30
2022-10-01T19:18:20.560Z,11.15
2022-10-01T19:21:07.850Z,9.80
2022-10-01T19:23:43.697Z,12.75
2022-10-01T19:26:34.659Z,8.35
2022-10-01T19:29:36.896Z,11.60
2022-10-01T19:32:13.293Z,7.70
2022-10-01T19:34:43.469Z,12.05
2022-10-01T19:37:31.930Z,12.55
2022-10-01T19:40:23.547Z,9.85
2022-10-01T19:43:01.688Z,8.65
2022-10-01T19:45:50.106Z,9.73
2022-10-01T19:48:48.939Z,10.00
2022-10-01T19:51:21.604Z,11.38
2022-10-01T19:53:56.507Z,10.02
2022-10-01T19:56:27.364Z,16.02
2022-10-01T19:58:54.245Z,11.85
2022-10-01T20:01:24.710Z,11.75
2022-10-01T20:04:01.454Z,10.35
2022-10-01T20:06:38.476Z,10.30
2022-10-01T20:09:27.733Z,11.55
2022-10-01T20:12:31.927Z,15.32
2022-10-01T20:15:11.609Z,11.52
2022-10-01T20:18:13.022Z,10.95
2022-10-01T20:20:49.779Z,11.75
2022-10-01T20:23:51.316Z,8.98
2022-10-01T20:26:24.252Z,9.70
2022-10-01T20:29:20.485Z,14.52
2022-10-01T20:31:48.288Z,15.55
2022-10-01T20:34:27.653Z,10.43
2022-10-01T20:37:08.337Z,8.63
2022-10-01T20:39:44.155Z,14.40
2022-10-01T20:42:18.146Z,11.20
2022-10-01T20:44:45.341Z,10.30
2022-10-01T20:47:40.316Z,10.43
2022-10-01T20:50:18.101Z,8.43
2022-10-01T20:52:44.854Z,9.90
2022-10-01T20:55:26.541Z,10.02
2022-10-01T20:57:58.460Z,9.00
2022-10-01T21:00:27.867Z,7.82
2022-10-01T21:03:20.029Z,8.20
2022-10-01T21:05:53.001Z,10.88
2022-10-01T21:08:58.705Z,7.43
2022-10-01T21:11:58.055Z,13.95
2022-10-01T21:14:47.136Z,10.07
2022-10-01T21:17:41.842Z,9.60
2022-10-01T21:20:41.269Z,10.63
2022-10-01T21:23:51.832Z,6.95
2022-10-01T21:26:48.625Z,6.13
2022-10-01T21:29:44.963Z,6.93
2022-10-01T21:32:23.854Z,5.90
2022-10-01T21:35:04.745Z,6.65
2022-10-01T21:37:50.702Z,7.38
2022-10-01T21:40:25.769Z,9.90
2022-10-01T21:43:04.868Z,7.57
2022-10-01T21:46:06.766Z,7.97
2022-10-01T21:51:29.044Z,6.53
2022-10-01T21:54:07.853Z,6.88
2022-10-01T21:56:58.036Z,10.32
2022-10-01T21:59:33.756Z,8.03
2022-10-01T22:02:14.897Z,7.97
2022-10-01T22:04:54.495Z,12.90
2022-10-01T22:08:01.337Z,10.07
2022-10-01T22:10:35.818Z,9.05
2022-10-01T22:13:11.296Z,7.90
2022-10-01T22:15:43.603Z,8.70
2022-10-01T22:18:24.352Z,10.32
2022-10-01T22:20:52.669Z,9.90
2022-10-01T22:23:20.251Z,11.77
2022-10-01T22:25:56.305Z,8.98
2022-10-01T22:28:33.068Z,9.80
2022-10-01T22:31:03.392Z,10.13
2022-10-01T22:33:41.091Z,8.30
2022-10-01T22:36:13.570Z,10.10
2022-10-01T22:38:56.833Z,12.25
2022-10-01T22:41:29.519Z,13.25
2022-10-01T22:43:56.477Z,12.32
2022-10-01T22:46:29.130Z,8.32
2022-10-01T22:49:14.735Z,9.80
2022-10-01T22:52:14.776Z,12.02
2022-10-01T22:55:15.406Z,15.43
2022-10-01T22:58:06.278Z,14.30
2022-10-01T23:01:06.163Z,17.38
2022-10-01T23:04:09.076Z,10.73
2022-10-01T23:06:52.405Z,13.50
2022-10-01T23:09:40.955Z,8.75
2022-10-01T23:12:13.682Z,8.90
2022-10-01T23:14:46.681Z,10.60
2022-10-01T23:17:27.990Z,12.15
2022-10-01T23:20:10.770Z,9.20
2022-10-01T23:22:53.468Z,11.45
2022-10-01T23:25:29.558Z,11.57
2022-10-01T23:28:13.544Z,15.70
2022-10-01T23:31:04.477Z,10.05
2022-10-01T23:33:52.246Z,14.35
2022-10-01T23:36:34.672Z,18.83
2022-10-01T23:39:02.418Z,16.67
2022-10-01T23:41:53.544Z,12.20
2022-10-01T23:44:35.472Z,11.63
2022-10-01T23:47:08.292Z,12.43
2022-10-01T23:49:40.003Z,13.80
2022-10-01T23:52:25.018Z,10.90
2022-10-01T23:55:17.354Z,9.65
2022-10-01T23:57:45.092Z,14.90
